Time;durP1;ratioP1;P1;durP2;ratioP2;P2;SDS_P1;SDS_P2;PMS_P1;PMS_P2;Temp;Humidity;BMP_temperature;BMP_pressure;BME280_temperature;BME280_humidity;BME280_pressure;Samples;Min_cycle;Max_cycle;Signal;HPM_P1;HPM_P2
2023/01/18 00:00:33;;;;;;;9.47;4.87;;;;;;;;;;4934910;29;20438;-62
2023/01/18 00:02:59;;;;;;;9.70;5.20;;;;;;;;;;4934754;29;21256;-62
2023/01/18 00:05:43;;;;;;;8.87;4.83;;;;;;;;;;4934763;29;20961;-62
2023/01/18 00:08:15;;;;;;;7.73;4.87;;;;;;;;;;4934879;29;20835;-62
2023/01/18 00:11:06;;;;;;;8.20;5.17;;;;;;;;;;4935071;29;20423;-62
2023/01/18 00:13:32;;;;;;;8.47;5.40;;;;;;;;;;4934924;29;20427;-62
2023/01/18 00:16:03;;;;;;;8.77;4.87;;;;;;;;;;4935112;29;20439;-62
2023/01/18 00:18:29;;;;;;;10.47;5.47;;;;;;;;;;4934655;29;20494;-63
2023/01/18 00:21:06;;;;;;;7.83;4.97;;;;;;;;;;4934813;29;20427;-62
2023/01/18 00:23:50;;;;;;;8.27;4.33;;;;;;;;;;4934781;29;20474;-62
2023/01/18 00:26:17;;;;;;;8.77;4.50;;;;;;;;;;4934868;29;20442;-62
2023/01/18 00:28:44;;;;;;;8.77;4.50;;;;;;;;;;4934230;29;20483;-62
2023/01/18 00:31:11;;;;;;;7.13;4.47;;;;;;;;;;4917608;29;20560;-62
2023/01/18 00:33:38;;;;;;;10.60;5.03;;;;;;;;;;4934554;29;20439;-62
2023/01/18 00:36:04;;;;;;;8.60;5.13;;;;;;;;;;4934209;29;20479;-63
2023/01/18 00:38:31;;;;;;;7.53;4.40;;;;;;;;;;4934349;29;20425;-62
2023/01/18 00:40:58;;;;;;;7.73;4.17;;;;;;;;;;4934829;29;20779;-62
2023/01/18 00:43:39;;;;;;;7.40;4.33;;;;;;;;;;4934094;29;20442;-62
2023/01/18 00:46:07;;;;;;;8.33;4.40;;;;;;;;;;4934288;29;20588;-62
2023/01/18 00:48:34;;;;;;;11.27;5.23;;;;;;;;;;4934165;29;20434;-62
2023/01/18 00:51:01;;;;;;;12.40;5.33;;;;;;;;;;4933075;29;20510;-62
2023/01/18 00:53:27;;;;;;;9.10;4.90;;;;;;;;;;4934160;29;20438;-62
2023/01/18 00:56:12;;;;;;;7.37;4.63;;;;;;;;;;4934234;29;20454;-62
2023/01/18 00:58:39;;;;;;;8.47;4.80;;;;;;;;;;4934062;29;20783;-62
2023/01/18 01:01:06;;;;;;;9.50;5.37;;;;;;;;;;4933943;29;20514;-62
2023/01/18 01:06:42;;;;;;;9.47;5.03;;;;;;;;;;4933935;29;20490;-62
2023/01/18 01:06:43;;;;;;;12.33;5.87;;;;;;;;;;4934322;29;20433;-62
2023/01/18 01:09:13;;;;;;;11.73;5.87;;;;;;;;;;4934291;29;20993;-62
2023/01/18 01:26:12;;;;;;;8.50;4.53;;;;;;;;;;4933852;29;20459;-62
2023/01/18 01:28:51;;;;;;;11.57;6.13;;;;;;;;;;4933320;29;20534;-61
2023/01/18 01:31:18;;;;;;;13.27;6.87;;;;;;;;;;4933535;29;20439;-62
2023/01/18 01:33:44;;;;;;;12.03;6.10;;;;;;;;;;4933147;29;20919;-62
2023/01/18 01:36:12;;;;;;;12.90;7.07;;;;;;;;;;4933261;29;20926;-62
2023/01/18 01:38:42;;;;;;;12.80;7.27;;;;;;;;;;4933304;29;20442;-62
2023/01/18 01:41:29;;;;;;;13.53;7.10;;;;;;;;;;4932255;29;20537;-61
2023/01/18 02:18:51;;;;;;;16.70;8.23;;;;;;;;;;4913749;29;20432;-62
2023/01/18 02:21:19;;;;;;;12.17;7.80;;;;;;;;;;4913786;29;20530;-62
2023/01/18 02:23:51;;;;;;;11.93;6.17;;;;;;;;;;4913730;29;20443;-61
2023/01/18 02:26:24;;;;;;;16.60;8.10;;;;;;;;;;4913984;29;20447;-62
2023/01/18 02:29:04;;;;;;;15.07;7.43;;;;;;;;;;4912425;29;20467;-62
2023/01/18 02:31:33;;;;;;;15.10;8.03;;;;;;;;;;4912652;29;20458;-62
2023/01/18 02:33:59;;;;;;;14.13;8.10;;;;;;;;;;4912348;29;20848;-62
2023/01/18 02:36:30;;;;;;;11.47;7.57;;;;;;;;;;4913453;29;20525;-62
2023/01/18 02:38:59;;;;;;;14.43;7.90;;;;;;;;;;4912381;29;20435;-62
2023/01/18 02:46:29;;;;;;;14.93;8.50;;;;;;;;;;4912240;29;20487;-62
2023/01/18 02:47:04;;;;;;;12.87;7.60;;;;;;;;;;4912674;29;20447;-62
2023/01/18 02:49:31;;;;;;;12.13;7.43;;;;;;;;;;4912184;29;20475;-62
2023/01/18 02:52:01;;;;;;;11.23;7.23;;;;;;;;;;4913736;29;20447;-62
2023/01/18 02:54:27;;;;;;;12.33;7.63;;;;;;;;;;4913484;29;20441;-62
2023/01/18 02:56:54;;;;;;;14.03;7.90;;;;;;;;;;4912186;29;20934;-62
2023/01/18 02:59:22;;;;;;;13.00;7.80;;;;;;;;;;4912045;29;20807;-62
2023/01/18 03:02:08;;;;;;;12.50;7.67;;;;;;;;;;4928690;29;20438;-62
2023/01/18 03:04:35;;;;;;;14.90;7.67;;;;;;;;;;4915477;29;20823;-62
2023/01/18 03:07:08;;;;;;;17.53;9.20;;;;;;;;;;4932103;29;20418;-62
2023/01/18 03:09:34;;;;;;;15.23;9.13;;;;;;;;;;4932319;29;20438;-62
2023/01/18 03:12:19;;;;;;;13.33;8.30;;;;;;;;;;4932076;29;20427;-62
2023/01/18 03:15:00;;;;;;;12.40;7.67;;;;;;;;;;4933222;29;20442;-62
2023/01/18 03:18:07;;;;;;;13.37;7.07;;;;;;;;;;4935623;29;20517;-62
2023/01/18 03:20:34;;;;;;;16.23;7.83;;;;;;;;;;4917468;29;20537;-62
2023/01/18 03:25:57;;;;;;;18.03;8.97;;;;;;;;;;4936002;29;20485;-62
2023/01/18 03:34:26;;;;;;;12.70;7.80;;;;;;;;;;4935320;29;20447;-62
2023/01/18 03:36:52;;;;;;;12.57;8.23;;;;;;;;;;4918676;29;20447;-62
2023/01/18 03:39:22;;;;;;;14.83;8.67;;;;;;;;;;4918675;29;20474;-62
2023/01/18 03:41:51;;;;;;;18.17;9.13;;;;;;;;;;4918503;29;20441;-62
2023/01/18 03:44:34;;;;;;;15.83;8.80;;;;;;;;;;4918708;29;20458;-62
2023/01/18 03:47:18;;;;;;;15.73;8.80;;;;;;;;;;4921413;29;20570;-62
2023/01/18 03:49:44;;;;;;;17.73;9.60;;;;;;;;;;4918258;29;20494;-62
2023/01/18 03:52:36;;;;;;;18.97;9.73;;;;;;;;;;4935305;29;21200;-62
2023/01/18 03:55:12;;;;;;;18.23;9.37;;;;;;;;;;4918284;29;20438;-62
2023/01/18 03:57:58;;;;;;;17.07;9.30;;;;;;;;;;4935041;29;20949;-62
2023/01/18 04:00:25;;;;;;;15.67;9.07;;;;;;;;;;4917878;29;20435;-62
2023/01/18 04:02:52;;;;;;;16.10;8.77;;;;;;;;;;4935094;29;20523;-62
2023/01/18 04:05:18;;;;;;;18.97;9.73;;;;;;;;;;4918506;29;20816;-62
2023/01/18 04:07:45;;;;;;;21.13;10.00;;;;;;;;;;4935028;29;20441;-62
2023/01/18 04:10:29;;;;;;;19.63;10.50;;;;;;;;;;4935326;29;20462;-62
2023/01/18 04:12:56;;;;;;;18.77;10.67;;;;;;;;;;4934662;29;20431;-61
2023/01/18 04:15:40;;;;;;;20.53;10.27;;;;;;;;;;4931692;29;20430;-62
2023/01/18 04:18:07;;;;;;;22.23;10.83;;;;;;;;;;4935699;29;20517;-62
2023/01/18 04:20:34;;;;;;;21.40;11.70;;;;;;;;;;4935528;29;20478;-63
2023/01/18 04:23:00;;;;;;;25.57;13.80;;;;;;;;;;4934861;29;20438;-62
2023/01/18 04:25:27;;;;;;;28.83;11.90;;;;;;;;;;4934905;29;20478;-63
2023/01/18 04:27:54;;;;;;;27.90;12.63;;;;;;;;;;4935621;29;20677;-62
2023/01/18 04:30:20;;;;;;;45.73;10.80;;;;;;;;;;4935455;29;20439;-62
2023/01/18 04:32:47;;;;;;;44.57;16.47;;;;;;;;;;4934096;29;20931;-61
2023/01/18 04:35:14;;;;;;;34.23;12.93;;;;;;;;;;4935078;29;21036;-62
2023/01/18 04:37:41;;;;;;;30.63;12.00;;;;;;;;;;4934808;29;20435;-62
2023/01/18 04:40:08;;;;;;;35.80;9.73;;;;;;;;;;4934449;29;20462;-62
2023/01/18 04:42:35;;;;;;;39.67;9.77;;;;;;;;;;4917786;29;20446;-62
2023/01/18 04:45:02;;;;;;;20.17;9.10;;;;;;;;;;4934304;29;20498;-62
2023/01/18 04:47:28;;;;;;;21.70;9.83;;;;;;;;;;4934497;29;20498;-62
2023/01/18 04:49:56;;;;;;;28.57;11.60;;;;;;;;;;4931283;29;20454;-61
2023/01/18 04:52:24;;;;;;;24.97;9.30;;;;;;;;;;4926372;29;20456;-61
2023/01/18 04:54:50;;;;;;;19.83;8.47;;;;;;;;;;4938539;29;20448;-63
2023/01/18 04:57:17;;;;;;;40.57;10.90;;;;;;;;;;4936935;29;20509;-62
2023/01/18 04:59:44;;;;;;;23.87;10.37;;;;;;;;;;4932427;29;20453;-62
2023/01/18 05:02:11;;;;;;;18.83;10.03;;;;;;;;;;4940051;29;20764;-61
2023/01/18 05:04:56;;;;;;;24.87;11.13;;;;;;;;;;4932825;29;20494;-64
2023/01/18 05:07:23;;;;;;;22.73;10.27;;;;;;;;;;4935649;29;20494;-63
2023/01/18 05:10:08;;;;;;;31.13;9.37;;;;;;;;;;4935655;29;20520;-61
2023/01/18 05:12:34;;;;;;;12.73;8.00;;;;;;;;;;4918677;29;21155;-64
2023/01/18 05:15:01;;;;;;;20.17;8.80;;;;;;;;;;4934700;29;20454;-62
2023/01/18 05:17:29;;;;;;;45.63;9.30;;;;;;;;;;4935253;29;21020;-62
2023/01/18 05:19:56;;;;;;;23.70;8.80;;;;;;;;;;4936590;29;20544;-62
2023/01/18 05:22:22;;;;;;;38.07;11.80;;;;;;;;;;4937001;29;20476;-62
2023/01/18 05:24:49;;;;;;;43.70;12.57;;;;;;;;;;4935572;29;20488;-62
2023/01/18 05:27:16;;;;;;;42.47;11.00;;;;;;;;;;4937403;29;20438;-62
2023/01/18 05:29:42;;;;;;;41.37;10.80;;;;;;;;;;4935114;28;20881;-61
2023/01/18 05:32:10;;;;;;;34.33;10.23;;;;;;;;;;4941220;28;20502;-61
2023/01/18 05:34:36;;;;;;;45.47;10.97;;;;;;;;;;4932454;29;20456;-60
2023/01/18 05:37:03;;;;;;;69.13;12.57;;;;;;;;;;4931892;29;20451;-61
2023/01/18 05:39:30;;;;;;;37.40;10.63;;;;;;;;;;4936182;29;20446;-61
2023/01/18 05:41:56;;;;;;;47.83;9.40;;;;;;;;;;4932130;28;20454;-62
2023/01/18 05:44:25;;;;;;;27.77;9.30;;;;;;;;;;4933385;29;20529;-61
2023/01/18 05:46:52;;;;;;;30.77;10.80;;;;;;;;;;4934368;29;20430;-61
2023/01/18 05:49:19;;;;;;;43.77;10.27;;;;;;;;;;4940448;29;20433;-62
2023/01/18 05:51:45;;;;;;;40.93;10.23;;;;;;;;;;4937818;28;20501;-60
2023/01/18 05:54:12;;;;;;;51.20;11.43;;;;;;;;;;4937109;29;21039;-61
2023/01/18 05:56:39;;;;;;;52.10;11.33;;;;;;;;;;4921580;29;20482;-60
2023/01/18 05:59:05;;;;;;;20.50;8.30;;;;;;;;;;4932335;29;20961;-60
2023/01/18 06:01:32;;;;;;;61.53;10.93;;;;;;;;;;4930277;29;22307;-61
2023/01/18 06:03:59;;;;;;;31.00;9.97;;;;;;;;;;4911633;29;20451;-61
2023/01/18 06:06:26;;;;;;;46.50;10.57;;;;;;;;;;4931946;29;20473;-61
2023/01/18 06:08:52;;;;;;;41.73;9.47;;;;;;;;;;4927120;29;20843;-62
2023/01/18 06:11:19;;;;;;;37.60;9.60;;;;;;;;;;4933759;29;20788;-60
2023/01/18 06:13:46;;;;;;;35.97;10.03;;;;;;;;;;4934021;28;20462;-61
2023/01/18 06:16:13;;;;;;;23.70;8.73;;;;;;;;;;4940802;29;20841;-62
2023/01/18 06:18:40;;;;;;;34.33;10.63;;;;;;;;;;4937947;29;20453;-60
2023/01/18 06:21:08;;;;;;;41.50;9.80;;;;;;;;;;4938962;29;20506;-61
2023/01/18 06:23:35;;;;;;;22.63;9.73;;;;;;;;;;4930246;29;20449;-62
2023/01/18 06:26:01;;;;;;;22.13;10.30;;;;;;;;;;4931104;29;20835;-62
2023/01/18 06:28:28;;;;;;;30.43;10.50;;;;;;;;;;4930279;29;20480;-61
2023/01/18 06:30:56;;;;;;;40.40;10.33;;;;;;;;;;4915768;29;20482;-62
2023/01/18 06:33:23;;;;;;;25.83;9.83;;;;;;;;;;4936215;28;20438;-62
2023/01/18 06:35:49;;;;;;;40.00;11.20;;;;;;;;;;4924538;29;20430;-62
2023/01/18 06:38:16;;;;;;;44.47;12.33;;;;;;;;;;4940302;28;20803;-61
2023/01/18 06:40:43;;;;;;;50.33;12.10;;;;;;;;;;4927630;29;20442;-63
2023/01/18 06:43:12;;;;;;;55.77;9.93;;;;;;;;;;4928575;29;20953;-63
2023/01/18 06:45:40;;;;;;;41.73;10.43;;;;;;;;;;4930323;28;20482;-61
2023/01/18 06:48:06;;;;;;;24.80;10.17;;;;;;;;;;4934468;28;21023;-61
2023/01/18 06:50:33;;;;;;;21.77;8.57;;;;;;;;;;4937800;28;20458;-62
2023/01/18 06:53:00;;;;;;;31.17;10.77;;;;;;;;;;4939560;29;20450;-62
2023/01/18 06:55:27;;;;;;;23.93;9.43;;;;;;;;;;4921088;29;20544;-62
2023/01/18 06:57:55;;;;;;;39.57;13.47;;;;;;;;;;4926253;29;20492;-62
2023/01/18 07:00:22;;;;;;;42.93;15.17;;;;;;;;;;4938131;29;20449;-67
2023/01/18 07:02:50;;;;;;;32.40;12.73;;;;;;;;;;4937461;29;20454;-61
2023/01/18 07:05:16;;;;;;;35.43;14.53;;;;;;;;;;4932687;28;20478;-61
2023/01/18 07:07:44;;;;;;;39.87;15.10;;;;;;;;;;4931932;29;20434;-62
2023/01/18 07:10:11;;;;;;;38.23;17.40;;;;;;;;;;4929564;29;20498;-62
2023/01/18 07:12:42;;;;;;;53.23;23.80;;;;;;;;;;4943230;29;20473;-62
2023/01/18 07:15:09;;;;;;;60.07;27.03;;;;;;;;;;4938233;29;20429;-63
2023/01/18 07:17:49;;;;;;;58.73;25.70;;;;;;;;;;4945356;29;20438;-63
2023/01/18 07:20:16;;;;;;;57.30;23.67;;;;;;;;;;4935904;29;20764;-63
2023/01/18 07:22:42;;;;;;;50.40;23.80;;;;;;;;;;4935458;29;20438;-63
2023/01/18 07:25:12;;;;;;;49.17;23.33;;;;;;;;;;4918714;29;20474;-63
2023/01/18 07:27:41;;;;;;;44.50;20.83;;;;;;;;;;4935390;29;20467;-63
2023/01/18 07:30:11;;;;;;;42.83;19.80;;;;;;;;;;4935966;29;20795;-63
2023/01/18 07:32:38;;;;;;;42.77;19.10;;;;;;;;;;4935688;29;20441;-63
2023/01/18 07:35:04;;;;;;;37.23;18.83;;;;;;;;;;4935865;29;20418;-63
2023/01/18 07:37:32;;;;;;;34.73;16.87;;;;;;;;;;4935427;29;20435;-63
2023/01/18 07:39:59;;;;;;;37.03;18.80;;;;;;;;;;4935655;29;20437;-63
2023/01/18 07:42:25;;;;;;;38.43;18.00;;;;;;;;;;4935435;29;20466;-63
2023/01/18 07:44:52;;;;;;;33.80;17.63;;;;;;;;;;4935706;29;20494;-63
2023/01/18 07:47:19;;;;;;;38.87;18.30;;;;;;;;;;4935760;29;20795;-63
2023/01/18 07:49:45;;;;;;;38.00;18.80;;;;;;;;;;4934132;29;20441;-63
2023/01/18 07:52:12;;;;;;;36.03;18.20;;;;;;;;;;4934827;29;20454;-62
2023/01/18 07:54:39;;;;;;;29.90;15.50;;;;;;;;;;4935849;29;20442;-62
2023/01/18 07:57:24;;;;;;;31.57;16.13;;;;;;;;;;4935256;29;20456;-64
2023/01/18 07:59:51;;;;;;;44.27;22.77;;;;;;;;;;4935078;29;20456;-62
2023/01/18 08:02:18;;;;;;;38.33;21.10;;;;;;;;;;4934579;29;20541;-65
2023/01/18 08:04:48;;;;;;;32.57;17.83;;;;;;;;;;4935570;29;20863;-64
2023/01/18 08:07:16;;;;;;;30.50;16.20;;;;;;;;;;4935057;29;21001;-64
2023/01/18 08:10:01;;;;;;;33.30;15.43;;;;;;;;;;4934868;29;20923;-61
2023/01/18 08:12:27;;;;;;;35.53;18.23;;;;;;;;;;4933646;29;20438;-62
2023/01/18 08:15:12;;;;;;;35.17;18.33;;;;;;;;;;4934956;29;20453;-62
2023/01/18 08:17:38;;;;;;;34.70;17.27;;;;;;;;;;4934657;29;20423;-61
2023/01/18 08:20:08;;;;;;;37.73;18.23;;;;;;;;;;4934602;29;20481;-62
2023/01/18 08:22:35;;;;;;;37.90;18.47;;;;;;;;;;4934025;29;20439;-62
2023/01/18 08:25:02;;;;;;;36.70;18.33;;;;;;;;;;4933846;29;20433;-62
2023/01/18 08:27:29;;;;;;;42.07;20.63;;;;;;;;;;4933942;29;20510;-62
2023/01/18 08:29:56;;;;;;;36.77;17.93;;;;;;;;;;4934456;29;20478;-62
2023/01/18 08:32:22;;;;;;;35.90;17.40;;;;;;;;;;4933991;29;20442;-62
2023/01/18 08:34:49;;;;;;;33.97;16.73;;;;;;;;;;4917802;29;20454;-62
2023/01/18 08:37:16;;;;;;;33.30;16.50;;;;;;;;;;4934304;29;20435;-62
2023/01/18 08:39:42;;;;;;;33.27;16.73;;;;;;;;;;4917059;29;20431;-62
2023/01/18 08:42:12;;;;;;;30.97;16.10;;;;;;;;;;4933275;29;20775;-63
2023/01/18 08:44:38;;;;;;;33.63;16.57;;;;;;;;;;4926665;28;20442;-64
2023/01/18 08:47:05;;;;;;;30.13;15.87;;;;;;;;;;4931705;29;20521;-63
2023/01/18 08:49:32;;;;;;;36.07;18.63;;;;;;;;;;4930978;29;20965;-63
2023/01/18 08:51:59;;;;;;;31.37;16.80;;;;;;;;;;4931495;29;20438;-62
2023/01/18 08:54:26;;;;;;;33.07;16.23;;;;;;;;;;4933977;29;20790;-62
2023/01/18 08:56:53;;;;;;;29.93;16.27;;;;;;;;;;4916832;29;21013;-61
2023/01/18 08:59:19;;;;;;;30.10;16.20;;;;;;;;;;4934309;29;20435;-62
2023/01/18 09:01:46;;;;;;;31.60;16.27;;;;;;;;;;4934024;29;20427;-61
2023/01/18 09:04:13;;;;;;;40.47;20.83;;;;;;;;;;4933854;29;20473;-61
2023/01/18 09:06:40;;;;;;;33.87;17.87;;;;;;;;;;4933818;29;20470;-62
2023/01/18 09:09:06;;;;;;;30.40;16.17;;;;;;;;;;4934166;29;20541;-62
2023/01/18 09:11:33;;;;;;;31.13;16.37;;;;;;;;;;4930914;28;20478;-61
2023/01/18 09:14:00;;;;;;;29.07;14.87;;;;;;;;;;4932910;29;20443;-63
2023/01/18 09:16:28;;;;;;;29.27;15.70;;;;;;;;;;4931328;29;20938;-63
2023/01/18 09:18:55;;;;;;;29.50;15.33;;;;;;;;;;4937314;29;20781;-62
2023/01/18 09:21:22;;;;;;;27.67;15.10;;;;;;;;;;4933189;29;20446;-63
2023/01/18 09:23:49;;;;;;;28.33;15.63;;;;;;;;;;4915771;29;20456;-63
2023/01/18 09:26:19;;;;;;;26.63;15.43;;;;;;;;;;4934174;29;20878;-62
2023/01/18 09:28:46;;;;;;;29.97;16.77;;;;;;;;;;4939963;29;20580;-63
2023/01/18 09:31:13;;;;;;;29.33;16.97;;;;;;;;;;4938635;29;20449;-62
2023/01/18 09:33:58;;;;;;;34.93;18.70;;;;;;;;;;4932260;28;20542;-63
2023/01/18 09:36:43;;;;;;;30.93;17.60;;;;;;;;;;4932873;29;20947;-65
2023/01/18 09:39:10;;;;;;;39.17;20.13;;;;;;;;;;4936565;29;20441;-64
2023/01/18 09:41:37;;;;;;;35.10;19.93;;;;;;;;;;4938510;28;20500;-62
2023/01/18 09:44:05;;;;;;;37.87;21.67;;;;;;;;;;4929386;29;20439;-64
2023/01/18 09:46:34;;;;;;;45.63;23.30;;;;;;;;;;4929487;29;20588;-62
2023/01/18 09:49:01;;;;;;;49.83;27.13;;;;;;;;;;4929698;29;20443;-62
2023/01/18 09:51:33;;;;;;;47.70;27.17;;;;;;;;;;4929074;29;20488;-64
2023/01/18 09:54:18;;;;;;;44.20;24.93;;;;;;;;;;4920384;29;20545;-62
2023/01/18 09:56:46;;;;;;;39.13;23.23;;;;;;;;;;4932548;29;20806;-64
2023/01/18 09:59:19;;;;;;;45.20;23.13;;;;;;;;;;4910077;29;20443;-65
2023/01/18 10:01:46;;;;;;;42.03;23.13;;;;;;;;;;4934854;29;20446;-64
2023/01/18 10:04:16;;;;;;;42.47;21.77;;;;;;;;;;4916303;29;20843;-63
2023/01/18 10:07:01;;;;;;;42.13;21.63;;;;;;;;;;4934641;29;20473;-63
2023/01/18 10:09:29;;;;;;;52.87;26.37;;;;;;;;;;4919076;29;20453;-62
2023/01/18 10:12:00;;;;;;;63.10;32.63;;;;;;;;;;4911697;29;21027;-62
2023/01/18 10:14:35;;;;;;;59.90;29.10;;;;;;;;;;4937244;29;20441;-62
2023/01/18 10:17:03;;;;;;;52.10;27.90;;;;;;;;;;4935660;29;20455;-63
2023/01/18 10:19:30;;;;;;;48.00;25.23;;;;;;;;;;4933583;28;20838;-62
2023/01/18 10:21:59;;;;;;;43.80;22.10;;;;;;;;;;4933814;29;20533;-63
2023/01/18 10:24:28;;;;;;;37.40;19.90;;;;;;;;;;4934191;29;20462;-63
2023/01/18 10:26:58;;;;;;;33.63;18.67;;;;;;;;;;4915926;29;20474;-64
2023/01/18 10:29:31;;;;;;;69.57;28.17;;;;;;;;;;4924061;29;21115;-64
2023/01/18 10:32:02;;;;;;;25.70;14.47;;;;;;;;;;4930244;29;20478;-63
2023/01/18 10:34:30;;;;;;;31.37;13.73;;;;;;;;;;4921471;29;20438;-64
2023/01/18 10:37:01;;;;;;;29.57;13.57;;;;;;;;;;4902422;29;20446;-62
2023/01/18 10:39:35;;;;;;;25.40;11.83;;;;;;;;;;4912172;29;20481;-64
2023/01/18 10:42:03;;;;;;;18.30;9.83;;;;;;;;;;4937488;29;20442;-64
2023/01/18 10:44:32;;;;;;;87.97;39.43;;;;;;;;;;4931727;29;20541;-63
2023/01/18 10:46:59;;;;;;;63.80;22.43;;;;;;;;;;4904168;29;20521;-62
2023/01/18 10:49:33;;;;;;;36.80;14.70;;;;;;;;;;4927168;29;20830;-63
2023/01/18 10:52:20;;;;;;;37.87;14.87;;;;;;;;;;4919246;29;20485;-63
2023/01/18 10:55:00;;;;;;;69.17;24.43;;;;;;;;;;4936018;29;20455;-63
2023/01/18 10:57:46;;;;;;;50.37;19.87;;;;;;;;;;4930092;29;20438;-63
2023/01/18 11:00:20;;;;;;;35.40;15.97;;;;;;;;;;4936432;29;20453;-63
2023/01/18 11:03:04;;;;;;;22.40;12.43;;;;;;;;;;4934050;28;20422;-62
2023/01/18 11:05:37;;;;;;;25.87;14.87;;;;;;;;;;4920482;29;21030;-63
2023/01/18 11:08:10;;;;;;;19.97;11.43;;;;;;;;;;4933234;29;21097;-63
2023/01/18 11:10:38;;;;;;;25.43;13.60;;;;;;;;;;4931763;29;20485;-63
2023/01/18 11:13:24;;;;;;;20.97;11.87;;;;;;;;;;4934785;29;20449;-63
2023/01/18 11:16:04;;;;;;;17.77;10.87;;;;;;;;;;4936722;28;20446;-64
2023/01/18 11:18:31;;;;;;;20.83;11.17;;;;;;;;;;4894293;29;20451;-63
2023/01/18 11:20:58;;;;;;;17.23;11.07;;;;;;;;;;4923022;29;20446;-64
2023/01/18 11:23:28;;;;;;;19.70;10.70;;;;;;;;;;4932660;29;20453;-63
2023/01/18 11:26:04;;;;;;;19.17;10.73;;;;;;;;;;4931174;28;20482;-63
2023/01/18 11:28:34;;;;;;;19.10;11.27;;;;;;;;;;4912793;29;20502;-62
2023/01/18 11:31:01;;;;;;;16.83;10.10;;;;;;;;;;4926517;29;20458;-63
2023/01/18 11:33:29;;;;;;;15.23;9.70;;;;;;;;;;4912075;28;20553;-63
2023/01/18 11:35:58;;;;;;;14.40;9.90;;;;;;;;;;4913343;29;20448;-63
2023/01/18 11:38:42;;;;;;;15.30;9.57;;;;;;;;;;4932395;29;20426;-63
2023/01/18 11:41:12;;;;;;;14.80;8.80;;;;;;;;;;4938104;29;20474;-62
2023/01/18 11:43:41;;;;;;;14.73;10.00;;;;;;;;;;4936042;29;20442;-65
2023/01/18 11:46:26;;;;;;;12.70;8.53;;;;;;;;;;4918548;29;20576;-62
2023/01/18 11:49:03;;;;;;;15.43;8.27;;;;;;;;;;4945023;29;20434;-62
2023/01/18 11:51:30;;;;;;;13.43;8.50;;;;;;;;;;4922117;29;20478;-64
2023/01/18 11:54:15;;;;;;;13.60;8.20;;;;;;;;;;4936574;29;20533;-62
2023/01/18 11:56:44;;;;;;;13.43;8.20;;;;;;;;;;4938002;29;20540;-63
2023/01/18 11:59:29;;;;;;;14.50;8.67;;;;;;;;;;4927535;29;20993;-63
2023/01/18 12:02:15;;;;;;;12.30;8.73;;;;;;;;;;4933821;29;20438;-63
2023/01/18 12:04:42;;;;;;;16.93;8.93;;;;;;;;;;4930020;29;20486;-65
2023/01/18 12:07:08;;;;;;;13.50;8.03;;;;;;;;;;4939852;28;20484;-65
2023/01/18 12:09:51;;;;;;;14.40;9.10;;;;;;;;;;4913411;29;20443;-64
2023/01/18 12:12:32;;;;;;;17.00;8.40;;;;;;;;;;4944406;28;20981;-64
2023/01/18 12:14:59;;;;;;;12.90;8.20;;;;;;;;;;4913258;29;20553;-63
2023/01/18 12:17:44;;;;;;;13.50;8.97;;;;;;;;;;4937624;29;20457;-64
2023/01/18 12:20:21;;;;;;;15.23;8.67;;;;;;;;;;4938124;29;20451;-63
2023/01/18 12:22:48;;;;;;;13.70;8.83;;;;;;;;;;4926238;28;20437;-64
2023/01/18 12:25:24;;;;;;;15.23;10.07;;;;;;;;;;4932014;29;21094;-64
2023/01/18 12:28:16;;;;;;;14.63;8.87;;;;;;;;;;4929831;29;20505;-64
2023/01/18 12:30:53;;;;;;;14.77;9.33;;;;;;;;;;4914184;29;20438;-64
2023/01/18 12:33:20;;;;;;;14.20;9.23;;;;;;;;;;4931495;29;20453;-64
2023/01/18 12:36:11;;;;;;;15.63;8.90;;;;;;;;;;4937375;28;20448;-63
2023/01/18 12:38:50;;;;;;;13.10;8.27;;;;;;;;;;4935530;29;20446;-64
2023/01/18 12:41:24;;;;;;;16.73;9.37;;;;;;;;;;4943543;28;20454;-63
2023/01/18 12:44:01;;;;;;;16.37;8.90;;;;;;;;;;4912551;29;20458;-64
2023/01/18 12:46:28;;;;;;;14.43;8.80;;;;;;;;;;4921354;29;20641;-63
2023/01/18 12:48:59;;;;;;;16.67;8.33;;;;;;;;;;4931186;29;20874;-63
2023/01/18 12:51:28;;;;;;;13.80;8.90;;;;;;;;;;4905093;29;20828;-64
2023/01/18 12:54:00;;;;;;;14.13;8.47;;;;;;;;;;4902810;29;20965;-64
2023/01/18 12:56:40;;;;;;;14.97;8.53;;;;;;;;;;4938204;28;20473;-64
2023/01/18 12:59:09;;;;;;;14.77;8.33;;;;;;;;;;4930819;29;20442;-65
2023/01/18 13:01:43;;;;;;;13.70;8.20;;;;;;;;;;4931934;29;20449;-62
2023/01/18 13:04:15;;;;;;;12.83;7.93;;;;;;;;;;4943462;28;20494;-65
2023/01/18 13:06:42;;;;;;;14.27;7.93;;;;;;;;;;4916020;29;20481;-64
2023/01/18 13:09:10;;;;;;;11.73;7.67;;;;;;;;;;4898525;29;20450;-64
2023/01/18 13:11:57;;;;;;;12.20;7.80;;;;;;;;;;4923890;29;20617;-64
2023/01/18 13:14:42;;;;;;;12.40;7.33;;;;;;;;;;4935493;29;20798;-64
2023/01/18 13:17:19;;;;;;;11.83;7.30;;;;;;;;;;4940245;29;21062;-64
2023/01/18 13:19:53;;;;;;;11.57;6.83;;;;;;;;;;4918504;29;20426;-64
2023/01/18 13:22:27;;;;;;;10.13;6.60;;;;;;;;;;4932176;29;21048;-63
2023/01/18 13:25:00;;;;;;;10.83;6.80;;;;;;;;;;4912053;29;20446;-62
2023/01/18 13:27:27;;;;;;;11.17;6.53;;;;;;;;;;4936725;29;20987;-64
2023/01/18 13:29:54;;;;;;;10.60;6.90;;;;;;;;;;4939995;29;20476;-63
2023/01/18 13:32:21;;;;;;;11.40;7.27;;;;;;;;;;4914366;29;20450;-63
2023/01/18 13:35:13;;;;;;;11.00;7.17;;;;;;;;;;4917463;29;20990;-65
2023/01/18 13:37:47;;;;;;;12.27;6.87;;;;;;;;;;4934117;28;20458;-64
2023/01/18 13:40:21;;;;;;;11.17;6.50;;;;;;;;;;4915009;29;22327;-65
2023/01/18 13:42:49;;;;;;;9.87;6.13;;;;;;;;;;4916785;29;20441;-65
2023/01/18 13:45:16;;;;;;;11.73;6.37;;;;;;;;;;4931526;29;20446;-64
2023/01/18 13:47:48;;;;;;;10.40;6.53;;;;;;;;;;4930353;29;20497;-64
2023/01/18 13:50:27;;;;;;;11.03;6.73;;;;;;;;;;4939328;28;20453;-64
2023/01/18 13:53:11;;;;;;;10.30;6.80;;;;;;;;;;4923255;29;20528;-64
2023/01/18 13:55:53;;;;;;;11.87;6.13;;;;;;;;;;4932981;29;20505;-64
2023/01/18 13:58:23;;;;;;;11.40;6.37;;;;;;;;;;4934113;28;20462;-64
2023/01/18 14:00:50;;;;;;;10.83;6.67;;;;;;;;;;4936959;28;20929;-64
2023/01/18 14:03:19;;;;;;;11.27;6.87;;;;;;;;;;4918455;29;20803;-64
2023/01/18 14:05:47;;;;;;;9.83;6.80;;;;;;;;;;4939478;29;21578;-64
2023/01/18 14:08:17;;;;;;;12.33;7.37;;;;;;;;;;4938894;28;20489;-64
2023/01/18 14:10:48;;;;;;;12.90;7.50;;;;;;;;;;4936554;28;20811;-64
2023/01/18 14:13:41;;;;;;;14.63;7.33;;;;;;;;;;4923028;29;20443;-64
2023/01/18 14:16:11;;;;;;;14.80;7.17;;;;;;;;;;4935284;29;20949;-64
2023/01/18 14:18:38;;;;;;;11.57;6.90;;;;;;;;;;4899899;29;20461;-63
2023/01/18 14:21:11;;;;;;;10.30;6.67;;;;;;;;;;4933228;28;20443;-63
2023/01/18 14:23:57;;;;;;;12.10;7.13;;;;;;;;;;4932925;29;20965;-64
2023/01/18 14:26:25;;;;;;;11.60;7.20;;;;;;;;;;4933057;29;20457;-63
2023/01/18 14:29:03;;;;;;;13.57;7.70;;;;;;;;;;4937047;29;20498;-64
2023/01/18 14:31:30;;;;;;;12.00;7.10;;;;;;;;;;4936816;29;20450;-65
2023/01/18 14:33:58;;;;;;;13.83;8.27;;;;;;;;;;4919444;29;20764;-65
2023/01/18 14:36:25;;;;;;;12.77;7.60;;;;;;;;;;4917105;29;20452;-65
2023/01/18 14:39:05;;;;;;;14.23;7.90;;;;;;;;;;4920285;29;20435;-64
2023/01/18 14:41:32;;;;;;;14.50;8.30;;;;;;;;;;4920724;29;20446;-64
2023/01/18 14:43:58;;;;;;;17.20;8.83;;;;;;;;;;4931572;29;20447;-63
2023/01/18 14:46:26;;;;;;;16.83;7.90;;;;;;;;;;4932662;29;20530;-64
2023/01/18 14:48:53;;;;;;;14.37;8.50;;;;;;;;;;4936515;28;20477;-64
2023/01/18 14:51:23;;;;;;;15.93;8.77;;;;;;;;;;4913918;29;20515;-63
2023/01/18 14:53:55;;;;;;;15.27;8.47;;;;;;;;;;4908992;29;20573;-63
2023/01/18 14:56:23;;;;;;;17.73;8.10;;;;;;;;;;4927372;29;20430;-64
2023/01/18 14:58:53;;;;;;;12.90;7.83;;;;;;;;;;4930512;29;21113;-63
2023/01/18 15:01:27;;;;;;;18.63;8.23;;;;;;;;;;4934227;29;20546;-63
2023/01/18 15:03:55;;;;;;;13.00;7.23;;;;;;;;;;4938430;29;20449;-63
2023/01/18 15:06:40;;;;;;;14.70;8.23;;;;;;;;;;4940926;28;20449;-64
2023/01/18 15:09:25;;;;;;;16.40;8.33;;;;;;;;;;4936204;29;20442;-63
2023/01/18 15:11:57;;;;;;;12.17;8.53;;;;;;;;;;4938552;29;20451;-63
2023/01/18 15:14:24;;;;;;;14.17;8.50;;;;;;;;;;4937352;29;20997;-63
2023/01/18 15:16:52;;;;;;;13.53;8.63;;;;;;;;;;4939916;29;20469;-63
2023/01/18 15:19:32;;;;;;;13.27;8.37;;;;;;;;;;4942081;29;20442;-63
2023/01/18 15:22:03;;;;;;;13.00;8.03;;;;;;;;;;4937123;28;20450;-64
2023/01/18 15:24:33;;;;;;;17.17;10.23;;;;;;;;;;4914990;29;20446;-64
2023/01/18 15:27:01;;;;;;;16.30;8.80;;;;;;;;;;4920945;29;20561;-65
2023/01/18 15:29:32;;;;;;;26.10;11.27;;;;;;;;;;4939704;29;20476;-63
2023/01/18 15:32:12;;;;;;;97.10;32.07;;;;;;;;;;4936818;29;20961;-63
2023/01/18 15:34:41;;;;;;;21.67;11.70;;;;;;;;;;4940449;29;20444;-64
2023/01/18 15:37:11;;;;;;;48.10;16.60;;;;;;;;;;4920799;29;20449;-64
2023/01/18 15:39:46;;;;;;;29.97;12.27;;;;;;;;;;4925937;29;20905;-63
2023/01/18 15:42:13;;;;;;;26.20;12.40;;;;;;;;;;4917927;29;20465;-63
2023/01/18 15:44:46;;;;;;;21.20;11.03;;;;;;;;;;4927396;29;20448;-64
2023/01/18 15:47:20;;;;;;;91.10;26.80;;;;;;;;;;4937820;28;20544;-64